createdAt,value
2024-04-25T00:00:15.895Z,7.27
2024-04-25T00:03:04.131Z,7.27
2024-04-25T00:05:32.003Z,7.27
2024-04-25T00:07:59.776Z,7.26
2024-04-25T00:10:27.462Z,7.22
2024-04-25T00:12:55.366Z,7.22
2024-04-25T00:15:25.728Z,7.27
2024-04-25T00:17:54.060Z,7.32
2024-04-25T00:20:22.010Z,7.28
2024-04-25T00:22:50.615Z,7.21
2024-04-25T00:25:18.568Z,7.16
2024-04-25T00:27:48.496Z,7.13
2024-04-25T00:30:16.356Z,7.15
2024-04-25T00:32:44.196Z,7.14
2024-04-25T00:35:12.396Z,7.15
2024-04-25T00:37:40.959Z,7.13
2024-04-25T00:40:09.670Z,7.12
2024-04-25T00:42:37.536Z,7.11
2024-04-25T00:45:05.820Z,7.11
2024-04-25T00:47:34.043Z,7.10
2024-04-25T00:50:02.255Z,7.07
2024-04-25T00:52:30.178Z,7.05
2024-04-25T00:54:58.122Z,7.03
2024-04-25T00:57:27.145Z,7.03
2024-04-25T00:59:57.249Z,7.02
2024-04-25T01:02:25.397Z,6.97
2024-04-25T01:04:56.423Z,6.92
2024-04-25T01:07:24.140Z,6.85
2024-04-25T01:09:51.822Z,6.76
2024-04-25T01:12:19.592Z,6.77
2024-04-25T01:14:47.542Z,6.78
2024-04-25T01:17:15.429Z,6.81
2024-04-25T01:19:44.266Z,6.83
2024-04-25T01:22:13.289Z,6.80
2024-04-25T01:24:41.045Z,6.76
2024-04-25T01:27:09.569Z,6.75
2024-04-25T01:29:38.201Z,6.71
2024-04-25T01:32:09.485Z,6.64
2024-04-25T01:34:37.834Z,6.58
2024-04-25T01:37:08.629Z,6.55
2024-04-25T01:39:38.107Z,6.52
2024-04-25T01:42:06.192Z,6.47
2024-04-25T01:44:34.028Z,6.37
2024-04-25T01:47:02.093Z,6.24
2024-04-25T01:49:29.836Z,6.13
2024-04-25T01:51:57.817Z,6.11
2024-04-25T01:54:25.547Z,6.10
2024-04-25T01:56:53.423Z,6.08
2024-04-25T01:59:21.216Z,6.06
2024-04-25T02:01:49.277Z,6.02
2024-04-25T02:04:17.291Z,5.97
2024-04-25T02:06:45.079Z,5.89
2024-04-25T02:09:12.942Z,5.81
2024-04-25T02:11:41.073Z,5.78
2024-04-25T02:14:09.058Z,5.75
2024-04-25T02:16:36.926Z,5.72
2024-04-25T02:19:04.962Z,5.65
2024-04-25T02:21:51.182Z,5.56
2024-04-25T02:24:37.174Z,5.50
2024-04-25T02:27:04.925Z,5.45
2024-04-25T02:29:32.763Z,5.39
2024-04-25T02:32:00.612Z,5.34
2024-04-25T02:34:28.552Z,5.32
2024-04-25T02:36:56.324Z,5.24
2024-04-25T02:39:24.056Z,5.14
2024-04-25T02:41:52.493Z,5.07
2024-04-25T02:44:20.477Z,5.07
2024-04-25T02:46:48.301Z,5.09
2024-04-25T02:49:16.172Z,5.05
2024-04-25T02:51:43.971Z,4.99
2024-04-25T02:54:11.726Z,4.91
2024-04-25T02:56:42.312Z,4.87
2024-04-25T02:59:10.232Z,4.94
2024-04-25T03:01:38.940Z,4.99
2024-04-25T03:04:10.299Z,5.00
2024-04-25T03:06:39.782Z,4.99
2024-04-25T03:09:10.124Z,4.96
2024-04-25T03:11:38.186Z,4.94
2024-04-25T03:14:05.926Z,4.95
2024-04-25T03:16:34.000Z,4.95
2024-04-25T03:19:01.846Z,4.92
2024-04-25T03:21:29.737Z,4.89
2024-04-25T03:23:57.830Z,4.91
2024-04-25T03:26:25.979Z,4.92
2024-04-25T03:28:54.020Z,4.79
2024-04-25T03:31:21.902Z,4.64
2024-04-25T03:33:49.772Z,4.52
2024-04-25T03:36:17.538Z,4.46
2024-04-25T03:38:45.535Z,4.45
2024-04-25T03:41:18.677Z,4.48
2024-04-25T03:43:47.110Z,4.56
2024-04-25T03:46:15.238Z,4.60
2024-04-25T03:48:43.478Z,4.66
2024-04-25T03:51:12.131Z,4.74
2024-04-25T03:53:39.809Z,4.77
2024-04-25T03:56:07.587Z,4.83
2024-04-25T03:58:41.475Z,4.86
2024-04-25T04:01:09.341Z,4.90
2024-04-25T04:03:37.464Z,4.98
2024-04-25T04:06:05.617Z,5.05
2024-04-25T04:08:33.406Z,5.09
2024-04-25T04:11:01.238Z,5.15
2024-04-25T04:13:29.067Z,5.13
2024-04-25T04:15:56.842Z,5.11
2024-04-25T04:18:27.645Z,5.17
2024-04-25T04:20:58.064Z,5.19
2024-04-25T04:23:26.078Z,5.24
2024-04-25T04:25:53.832Z,5.29
2024-04-25T04:28:21.731Z,5.30
2024-04-25T04:30:49.578Z,5.29
2024-04-25T04:33:17.489Z,5.31
2024-04-25T04:35:45.413Z,5.31
2024-04-25T04:38:14.333Z,5.36
2024-04-25T04:40:42.184Z,5.44
2024-04-25T04:43:10.031Z,5.47
2024-04-25T04:45:41.047Z,5.49
2024-04-25T04:48:15.793Z,5.59
2024-04-25T04:50:47.489Z,5.67
2024-04-25T04:53:15.578Z,5.71
2024-04-25T04:55:43.757Z,5.67
2024-04-25T04:58:11.541Z,5.68
2024-04-25T05:00:39.260Z,5.77
2024-04-25T05:03:09.301Z,5.87
2024-04-25T05:05:37.302Z,5.99
2024-04-25T05:08:08.558Z,6.10
2024-04-25T05:10:36.630Z,6.23
2024-04-25T05:13:05.276Z,6.39
2024-04-25T05:15:33.176Z,6.51
2024-04-25T05:18:01.528Z,6.60
2024-04-25T05:20:29.418Z,6.64
2024-04-25T05:22:58.123Z,6.62
2024-04-25T05:25:26.057Z,6.65
2024-04-25T05:27:55.245Z,6.73
2024-04-25T05:30:24.222Z,6.79
2024-04-25T05:32:52.206Z,6.93
2024-04-25T05:35:20.953Z,7.09
2024-04-25T05:37:48.580Z,7.27
2024-04-25T05:40:16.686Z,7.49
2024-04-25T05:42:46.702Z,7.70
2024-04-25T05:45:14.491Z,7.85
2024-04-25T05:47:42.864Z,7.94
2024-04-25T05:50:10.720Z,8.05
2024-04-25T05:52:41.271Z,8.22
2024-04-25T05:55:09.011Z,8.42
2024-04-25T05:57:39.939Z,8.57
2024-04-25T06:00:08.354Z,8.70
2024-04-25T06:02:36.163Z,8.82
2024-04-25T06:05:05.397Z,8.85
2024-04-25T06:07:33.144Z,8.85
2024-04-25T06:10:00.980Z,8.97
2024-04-25T06:12:30.369Z,9.01
2024-04-25T06:14:58.418Z,9.05
2024-04-25T06:17:26.238Z,9.06
2024-04-25T06:19:54.196Z,9.01
2024-04-25T06:22:23.584Z,9.04
2024-04-25T06:24:51.236Z,9.16
2024-04-25T06:27:19.018Z,9.36
2024-04-25T06:29:46.977Z,9.56
2024-04-25T06:32:14.986Z,9.75
2024-04-25T06:34:42.792Z,9.93
2024-04-25T06:37:11.342Z,10.13
2024-04-25T06:39:39.604Z,10.27
2024-04-25T06:42:07.317Z,10.43
2024-04-25T06:44:40.625Z,10.60
2024-04-25T06:47:17.338Z,10.79
2024-04-25T06:49:45.522Z,10.99
2024-04-25T06:52:13.399Z,11.22
2024-04-25T06:54:41.146Z,11.41
2024-04-25T06:57:09.074Z,11.61
2024-04-25T06:59:36.954Z,11.78
2024-04-25T07:02:05.818Z,11.94
2024-04-25T07:04:33.678Z,12.06
2024-04-25T07:07:01.432Z,12.23
2024-04-25T07:09:29.299Z,12.39
2024-04-25T07:11:57.058Z,12.37
2024-04-25T07:14:24.893Z,12.20
2024-04-25T07:16:52.841Z,12.10
2024-04-25T07:19:20.565Z,12.16
2024-04-25T07:21:48.432Z,12.20
2024-04-25T07:24:16.294Z,12.35
2024-04-25T07:26:44.418Z,12.57
2024-04-25T07:29:13.703Z,12.84
2024-04-25T07:31:41.386Z,12.94
2024-04-25T07:34:09.234Z,12.90
2024-04-25T07:36:37.271Z,12.67
2024-04-25T07:39:05.826Z,12.54
2024-04-25T07:41:33.878Z,12.48
2024-04-25T07:44:02.114Z,12.28
2024-04-25T07:46:30.400Z,12.10
2024-04-25T07:48:58.155Z,11.99
2024-04-25T07:51:26.633Z,12.13
2024-04-25T07:53:54.287Z,12.27
2024-04-25T07:56:22.170Z,12.40
2024-04-25T07:58:49.942Z,12.69
2024-04-25T08:01:17.697Z,12.91
2024-04-25T08:03:45.874Z,13.03
2024-04-25T08:06:13.799Z,13.04
2024-04-25T08:08:41.811Z,12.71
2024-04-25T08:11:09.668Z,12.56
2024-04-25T08:13:37.435Z,12.84
2024-04-25T08:16:06.127Z,13.21
2024-04-25T08:18:34.059Z,13.58
2024-04-25T08:21:01.988Z,13.49
2024-04-25T08:23:29.876Z,13.32
2024-04-25T08:25:57.689Z,13.07
2024-04-25T08:28:25.552Z,13.06
2024-04-25T08:30:53.237Z,12.99
2024-04-25T08:33:21.157Z,12.78
2024-04-25T08:35:49.147Z,12.41
2024-04-25T08:38:17.034Z,12.24
2024-04-25T08:40:48.889Z,12.17
2024-04-25T08:43:17.199Z,12.10
2024-04-25T08:45:45.149Z,12.02
2024-04-25T08:48:14.491Z,12.02
2024-04-25T08:50:42.404Z,11.98
2024-04-25T08:53:11.162Z,12.02
2024-04-25T08:55:39.207Z,12.14
2024-04-25T08:58:07.076Z,12.30
2024-04-25T09:00:35.240Z,12.31
2024-04-25T09:03:08.202Z,12.25
2024-04-25T09:05:36.437Z,12.01
2024-04-25T09:08:04.500Z,11.89
2024-04-25T09:10:40.508Z,11.89
2024-04-25T09:13:08.369Z,11.83
2024-04-25T09:15:36.304Z,11.89
2024-04-25T09:18:04.446Z,11.93
2024-04-25T09:20:32.718Z,11.94
2024-04-25T09:23:04.460Z,11.91
2024-04-25T09:25:34.370Z,11.94
2024-04-25T09:28:03.663Z,11.90
2024-04-25T09:30:33.733Z,11.77
2024-04-25T09:33:06.104Z,11.70
2024-04-25T09:35:46.315Z,11.57
2024-04-25T09:38:15.488Z,11.46
2024-04-25T09:40:50.824Z,11.20
2024-04-25T09:43:20.519Z,11.05
2024-04-25T09:45:50.108Z,10.92
2024-04-25T09:48:18.349Z,10.78
2024-04-25T09:50:50.916Z,10.66
2024-04-25T09:53:38.482Z,10.53
2024-04-25T09:56:07.979Z,10.46
2024-04-25T09:58:50.331Z,10.34
2024-04-25T10:01:18.900Z,10.25
2024-04-25T10:03:47.556Z,10.23
2024-04-25T10:06:15.783Z,10.20
2024-04-25T10:08:44.258Z,10.26
2024-04-25T10:11:15.586Z,10.59
2024-04-25T10:13:50.786Z,11.03
2024-04-25T10:16:19.966Z,10.97
2024-04-25T10:18:51.693Z,11.03
2024-04-25T10:21:20.815Z,10.99
2024-04-25T10:23:51.759Z,10.94
2024-04-25T10:26:21.502Z,10.91
2024-04-25T10:29:05.102Z,10.75
2024-04-25T10:31:38.115Z,10.51
2024-04-25T10:34:09.028Z,10.38
2024-04-25T10:36:38.380Z,10.37
2024-04-25T10:39:09.056Z,10.26
2024-04-25T10:41:39.885Z,10.19
2024-04-25T10:44:09.415Z,10.27
2024-04-25T10:46:38.307Z,10.34
2024-04-25T10:49:07.057Z,10.41
2024-04-25T10:51:38.626Z,10.51
2024-04-25T10:54:07.470Z,10.73
2024-04-25T10:56:36.374Z,10.95
2024-04-25T10:59:04.379Z,11.29
2024-04-25T11:01:32.740Z,11.83
2024-04-25T11:04:03.576Z,12.23
2024-04-25T11:06:32.696Z,12.45
2024-04-25T11:09:00.962Z,12.74
2024-04-25T11:11:29.147Z,13.02
2024-04-25T11:13:57.088Z,13.04
2024-04-25T11:16:45.209Z,13.11
2024-04-25T11:19:15.777Z,13.11
2024-04-25T11:21:46.618Z,12.95
2024-04-25T11:24:18.701Z,12.69
2024-04-25T11:26:46.945Z,12.41
2024-04-25T11:29:15.302Z,12.22
2024-04-25T11:31:44.325Z,12.11
2024-04-25T11:34:27.140Z,12.00
2024-04-25T11:37:06.562Z,11.94
2024-04-25T11:39:37.564Z,12.10
2024-04-25T11:42:08.121Z,12.35
2024-04-25T11:44:36.098Z,12.84
2024-04-25T11:47:03.890Z,13.02
2024-04-25T11:49:31.914Z,12.97
2024-04-25T11:51:59.608Z,12.82
2024-04-25T11:54:28.110Z,12.74
2024-04-25T11:56:56.119Z,12.68
2024-04-25T11:59:23.943Z,12.59
2024-04-25T12:01:54.418Z,12.55
2024-04-25T12:04:22.867Z,12.68
2024-04-25T12:06:50.934Z,13.27
2024-04-25T12:09:22.091Z,13.97
2024-04-25T12:11:55.970Z,14.69
2024-04-25T12:14:25.931Z,15.34
2024-04-25T12:16:54.794Z,15.46
2024-04-25T12:19:23.786Z,15.58
2024-04-25T12:21:51.603Z,15.55
2024-04-25T12:24:19.341Z,15.14
2024-04-25T12:26:47.138Z,14.67
2024-04-25T12:29:15.545Z,14.69
2024-04-25T12:31:43.938Z,14.85
2024-04-25T12:34:14.266Z,15.25
2024-04-25T12:36:44.499Z,15.47
2024-04-25T12:39:12.248Z,15.26
2024-04-25T12:41:40.069Z,15.48
2024-04-25T12:44:08.295Z,15.86
2024-04-25T12:46:36.101Z,16.18
2024-04-25T12:49:04.012Z,16.38
2024-04-25T12:51:31.787Z,16.46
2024-04-25T12:53:59.515Z,16.45
2024-04-25T12:56:27.722Z,16.58
2024-04-25T12:58:55.571Z,16.56
2024-04-25T13:01:23.446Z,16.23
2024-04-25T13:03:52.673Z,15.69
2024-04-25T13:06:20.500Z,15.09
2024-04-25T13:08:48.336Z,14.31
2024-04-25T13:11:16.376Z,13.49
2024-04-25T13:13:44.420Z,12.84
2024-04-25T13:16:12.222Z,12.12
2024-04-25T13:18:40.133Z,11.36
2024-04-25T13:30:25.327Z,13.36
2024-04-25T13:32:53.428Z,13.87
2024-04-25T13:35:21.318Z,13.68
2024-04-25T13:37:49.147Z,13.83
2024-04-25T13:40:17.050Z,13.55
2024-04-25T13:42:46.032Z,13.17
2024-04-25T13:45:13.866Z,12.46
2024-04-25T13:47:41.682Z,11.95
2024-04-25T14:02:51.299Z,12.66
2024-04-25T14:05:19.366Z,13.60
2024-04-25T14:07:50.793Z,14.78
2024-04-25T14:37:34.361Z,23.47
2024-04-25T14:40:02.376Z,23.11
2024-04-25T14:42:30.152Z,21.75
2024-04-25T14:44:57.921Z,21.50
2024-04-25T14:47:25.740Z,21.74
2024-04-25T14:49:53.732Z,20.67
2024-04-25T14:52:21.711Z,19.80
2024-04-25T14:54:49.394Z,20.61
2024-04-25T14:57:17.264Z,22.10
2024-04-25T14:59:46.617Z,21.95
2024-04-25T15:02:15.357Z,22.86
2024-04-25T15:04:43.124Z,22.85
2024-04-25T15:07:10.797Z,21.74
2024-04-25T15:09:38.530Z,20.65
2024-04-25T15:12:06.962Z,19.61
2024-04-25T15:14:36.377Z,18.64
2024-04-25T15:17:05.855Z,17.73
2024-04-25T15:19:45.381Z,16.86
2024-04-25T15:22:13.426Z,16.32
2024-04-25T15:24:41.828Z,16.32
2024-04-25T15:27:16.762Z,18.28
2024-04-25T15:29:45.669Z,20.88
2024-04-25T15:32:13.776Z,22.76
2024-04-25T15:34:41.591Z,24.36
2024-04-25T15:37:09.282Z,25.38
2024-04-25T15:39:36.986Z,26.47
2024-04-25T15:42:04.924Z,27.50
2024-04-25T15:44:32.729Z,28.14
2024-04-25T15:47:02.734Z,28.71
2024-04-25T15:49:30.845Z,29.30
2024-04-25T15:51:58.639Z,30.09
2024-04-25T15:54:26.631Z,30.86
2024-04-25T15:56:54.514Z,31.42
2024-04-25T15:59:23.688Z,31.74
2024-04-25T16:01:52.072Z,32.13
2024-04-25T16:04:19.725Z,32.09
2024-04-25T16:06:56.649Z,32.20
2024-04-25T16:09:26.558Z,32.48
2024-04-25T16:11:58.055Z,32.84
2024-04-25T16:14:26.100Z,33.37
2024-04-25T16:16:53.974Z,33.97
2024-04-25T16:19:25.799Z,33.95
2024-04-25T16:21:54.584Z,32.27
2024-04-25T16:24:22.570Z,30.22
2024-04-25T16:26:50.541Z,29.59
2024-04-25T16:29:20.065Z,27.98
2024-04-25T16:31:48.990Z,25.89
2024-04-25T16:34:16.763Z,24.99
2024-04-25T16:36:45.210Z,26.76
2024-04-25T16:39:13.074Z,28.26
2024-04-25T16:41:40.757Z,29.24
2024-04-25T16:44:08.516Z,30.23
2024-04-25T16:46:37.810Z,30.86
2024-04-25T16:49:05.561Z,31.19
2024-04-25T16:51:33.545Z,31.76
2024-04-25T16:54:01.201Z,31.77
2024-04-25T16:56:33.561Z,31.65
2024-04-25T16:59:01.780Z,31.92
2024-04-25T17:01:30.179Z,31.89
2024-04-25T17:03:58.503Z,31.74
2024-04-25T17:06:26.527Z,30.41
2024-04-25T17:08:54.810Z,28.52
2024-04-25T17:11:27.597Z,26.40
2024-04-25T17:13:59.080Z,24.04
2024-04-25T17:16:27.904Z,22.40
2024-04-25T17:18:58.670Z,21.12
2024-04-25T17:21:26.624Z,20.00
2024-04-25T17:23:57.223Z,18.84
2024-04-25T17:26:25.610Z,18.14
2024-04-25T17:28:54.374Z,17.38
2024-04-25T17:31:22.656Z,16.61
2024-04-25T17:33:51.079Z,15.98
2024-04-25T17:36:19.514Z,15.50
2024-04-25T17:38:47.458Z,14.98
2024-04-25T17:41:15.561Z,14.53
2024-04-25T17:43:43.312Z,14.20
2024-04-25T17:46:11.212Z,13.87
2024-04-25T17:48:39.411Z,13.60
2024-04-25T17:51:07.448Z,13.39
2024-04-25T17:53:37.273Z,13.17
2024-04-25T17:56:05.280Z,12.99
2024-04-25T17:58:35.715Z,12.81
2024-04-25T18:01:03.617Z,12.61
2024-04-25T18:03:31.560Z,12.39
2024-04-25T18:05:59.710Z,12.20
2024-04-25T18:08:27.665Z,12.00
2024-04-25T18:10:57.754Z,11.83
2024-04-25T18:13:25.731Z,11.66
2024-04-25T18:15:53.421Z,11.47
2024-04-25T18:18:22.297Z,11.30
2024-04-25T18:20:50.489Z,11.12
2024-04-25T18:23:18.395Z,10.95
2024-04-25T18:25:46.531Z,10.76
2024-04-25T18:28:17.172Z,10.62
2024-04-25T18:30:44.862Z,10.48
2024-04-25T18:33:12.776Z,10.36
2024-04-25T18:35:41.014Z,10.23
2024-04-25T18:38:09.213Z,10.12
2024-04-25T18:40:37.019Z,10.02
2024-04-25T18:43:05.374Z,9.94
2024-04-25T18:45:33.342Z,9.89
2024-04-25T18:48:01.127Z,9.84
2024-04-25T18:50:29.189Z,9.77
2024-04-25T18:52:56.953Z,9.68
2024-04-25T18:55:24.630Z,9.59
2024-04-25T18:57:52.307Z,9.50
2024-04-25T19:00:20.022Z,9.44
2024-04-25T19:02:47.760Z,9.34
2024-04-25T19:05:16.123Z,9.24
2024-04-25T19:07:44.606Z,9.13
2024-04-25T19:10:12.441Z,8.93
2024-04-25T19:12:42.164Z,8.72
2024-04-25T19:15:10.420Z,8.57
2024-04-25T19:17:38.129Z,8.45
2024-04-25T19:20:06.729Z,8.41
2024-04-25T19:22:34.528Z,8.39
2024-04-25T19:25:02.234Z,8.33
2024-04-25T19:27:30.132Z,8.21
2024-04-25T19:29:57.935Z,8.06
2024-04-25T19:32:26.384Z,7.93
2024-04-25T19:34:55.710Z,7.83
2024-04-25T19:37:23.498Z,7.78
2024-04-25T19:39:53.492Z,7.75
2024-04-25T19:42:22.190Z,7.68
2024-04-25T19:44:49.997Z,7.61
2024-04-25T19:47:18.041Z,7.57
2024-04-25T19:49:45.914Z,7.55
2024-04-25T19:52:14.172Z,7.55
2024-04-25T19:54:41.894Z,7.55
2024-04-25T19:57:09.812Z,7.52
2024-04-25T19:59:42.151Z,7.50
2024-04-25T20:02:10.278Z,7.49
2024-04-25T20:04:38.565Z,7.49
2024-04-25T20:07:06.529Z,7.50
2024-04-25T20:09:34.684Z,7.51
2024-04-25T20:12:05.376Z,7.53
2024-04-25T20:14:33.551Z,7.53
2024-04-25T20:17:10.920Z,7.50
2024-04-25T20:19:57.242Z,7.49
2024-04-25T20:22:25.350Z,7.49
2024-04-25T20:24:54.549Z,7.46
2024-04-25T20:27:22.365Z,7.41
2024-04-25T20:29:50.490Z,7.34
2024-04-25T20:32:18.385Z,7.28
2024-04-25T20:34:46.349Z,7.22
2024-04-25T20:37:14.267Z,7.18
2024-04-25T20:39:42.074Z,7.14
2024-04-25T20:42:10.218Z,7.10
2024-04-25T20:44:38.096Z,7.04
2024-04-25T20:47:07.355Z,7.01
2024-04-25T20:49:35.407Z,6.96
2024-04-25T20:52:03.304Z,6.86
2024-04-25T20:54:31.081Z,6.71
2024-04-25T20:56:59.265Z,6.57
2024-04-25T20:59:27.089Z,6.47
2024-04-25T21:01:55.095Z,6.41
2024-04-25T21:04:23.041Z,6.39
2024-04-25T21:06:51.267Z,6.37
2024-04-25T21:09:19.244Z,6.37
2024-04-25T21:11:47.600Z,6.27
2024-04-25T21:14:16.053Z,6.12
2024-04-25T21:16:44.240Z,6.01
2024-04-25T21:19:12.807Z,5.94
2024-04-25T21:21:45.301Z,5.94
2024-04-25T21:24:14.192Z,5.96
2024-04-25T21:26:48.517Z,5.98
2024-04-25T21:29:16.835Z,6.01
2024-04-25T21:31:45.230Z,5.99
2024-04-25T21:34:13.156Z,5.94
2024-04-25T21:36:40.956Z,5.92
2024-04-25T21:39:08.791Z,5.89
2024-04-25T21:41:41.321Z,5.87
2024-04-25T21:44:10.078Z,5.81
2024-04-25T21:46:38.851Z,5.78
2024-04-25T21:49:08.055Z,5.78
2024-04-25T21:51:42.254Z,5.78
2024-04-25T21:54:10.481Z,5.80
2024-04-25T21:56:38.445Z,5.79
2024-04-25T21:59:06.258Z,5.69
2024-04-25T22:01:34.185Z,5.59
2024-04-25T22:04:02.141Z,5.56
2024-04-25T22:06:30.035Z,5.54
2024-04-25T22:08:57.783Z,5.52
2024-04-25T22:11:25.873Z,5.46
2024-04-25T22:13:54.973Z,5.37
2024-04-25T22:16:22.938Z,5.30
2024-04-25T22:18:51.613Z,5.30
2024-04-25T22:21:20.931Z,5.30
2024-04-25T22:23:49.420Z,5.23
2024-04-25T22:26:17.125Z,5.12
2024-04-25T22:28:44.881Z,5.01
2024-04-25T22:31:12.650Z,4.97
2024-04-25T22:33:40.447Z,4.97
2024-04-25T22:36:09.814Z,4.91
2024-04-25T22:38:37.771Z,4.85
2024-04-25T22:41:05.542Z,4.78
2024-04-25T22:43:33.602Z,4.76
2024-04-25T22:46:01.356Z,4.79
2024-04-25T22:48:29.190Z,4.85
2024-04-25T22:50:57.147Z,4.80
2024-04-25T22:53:25.058Z,4.71
2024-04-25T22:55:52.860Z,4.69
2024-04-25T22:58:20.525Z,4.61
2024-04-25T23:00:48.266Z,4.61
2024-04-25T23:03:15.941Z,4.62
2024-04-25T23:05:43.752Z,4.64
2024-04-25T23:08:11.457Z,4.54
2024-04-25T23:10:39.210Z,4.49
2024-04-25T23:13:06.894Z,4.45
2024-04-25T23:15:35.139Z,4.44
2024-04-25T23:18:03.139Z,4.40
2024-04-25T23:20:30.920Z,4.31
2024-04-25T23:22:59.610Z,4.20
2024-04-25T23:25:27.343Z,4.12
2024-04-25T23:27:55.137Z,4.06
2024-04-25T23:30:23.045Z,4.03
2024-04-25T23:32:51.416Z,4.01
2024-04-25T23:35:19.397Z,4.03
2024-04-25T23:37:47.045Z,4.06
2024-04-25T23:40:14.761Z,4.14
2024-04-25T23:42:42.534Z,4.24
2024-04-25T23:45:10.381Z,4.34
2024-04-25T23:47:38.576Z,4.42
2024-04-25T23:50:07.103Z,4.44
2024-04-25T23:52:34.891Z,4.36
2024-04-25T23:55:02.710Z,4.23
2024-04-25T23:57:32.486Z,4.13
